sensor_id;sensor_type;location;lat;lon;timestamp;P1;durP1;ratioP1;P2;durP2;ratioP2
19758;SDS011;10038;42.662;23.278;2023-07-31T00:01:26;5.00;;;4.50;;
19758;SDS011;10038;42.662;23.278;2023-07-31T00:03:52;5.20;;;4.70;;
19758;SDS011;10038;42.662;23.278;2023-07-31T00:06:19;4.67;;;4.17;;
19758;SDS011;10038;42.662;23.278;2023-07-31T00:08:47;6.87;;;4.63;;
19758;SDS011;10038;42.662;23.278;2023-07-31T00:11:14;4.43;;;3.83;;
19758;SDS011;10038;42.662;23.278;2023-07-31T00:13:40;4.33;;;3.67;;
19758;SDS011;10038;42.662;23.278;2023-07-31T00:16:07;5.40;;;4.73;;
19758;SDS011;10038;42.662;23.278;2023-07-31T00:18:34;4.10;;;3.80;;
19758;SDS011;10038;42.662;23.278;2023-07-31T00:21:00;5.30;;;4.53;;
19758;SDS011;10038;42.662;23.278;2023-07-31T00:23:27;4.80;;;4.40;;
19758;SDS011;10038;42.662;23.278;2023-07-31T00:25:55;5.40;;;4.40;;
19758;SDS011;10038;42.662;23.278;2023-07-31T00:28:22;4.63;;;4.10;;
19758;SDS011;10038;42.662;23.278;2023-07-31T00:30:48;5.03;;;4.63;;
19758;SDS011;10038;42.662;23.278;2023-07-31T00:33:15;4.67;;;4.13;;
19758;SDS011;10038;42.662;23.278;2023-07-31T00:35:42;4.87;;;4.47;;
19758;SDS011;10038;42.662;23.278;2023-07-31T00:38:08;5.57;;;5.07;;
19758;SDS011;10038;42.662;23.278;2023-07-31T00:40:35;5.43;;;4.93;;
19758;SDS011;10038;42.662;23.278;2023-07-31T00:43:04;6.10;;;5.10;;
19758;SDS011;10038;42.662;23.278;2023-07-31T00:45:30;5.73;;;5.23;;
19758;SDS011;10038;42.662;23.278;2023-07-31T00:47:57;6.33;;;5.70;;
19758;SDS011;10038;42.662;23.278;2023-07-31T00:50:24;6.70;;;6.00;;
19758;SDS011;10038;42.662;23.278;2023-07-31T00:52:51;6.67;;;6.07;;
19758;SDS011;10038;42.662;23.278;2023-07-31T00:55:18;6.90;;;6.30;;
19758;SDS011;10038;42.662;23.278;2023-07-31T00:57:45;7.63;;;6.90;;
19758;SDS011;10038;42.662;23.278;2023-07-31T01:00:13;9.70;;;7.70;;
19758;SDS011;10038;42.662;23.278;2023-07-31T01:02:40;10.30;;;8.47;;
19758;SDS011;10038;42.662;23.278;2023-07-31T01:05:06;14.10;;;8.70;;
19758;SDS011;10038;42.662;23.278;2023-07-31T01:07:35;11.83;;;8.90;;
19758;SDS011;10038;42.662;23.278;2023-07-31T01:10:04;11.20;;;8.63;;
19758;SDS011;10038;42.662;23.278;2023-07-31T01:12:34;10.47;;;9.47;;
19758;SDS011;10038;42.662;23.278;2023-07-31T01:15:03;13.87;;;11.07;;
19758;SDS011;10038;42.662;23.278;2023-07-31T01:17:31;12.77;;;10.97;;
19758;SDS011;10038;42.662;23.278;2023-07-31T01:19:59;13.40;;;11.60;;
19758;SDS011;10038;42.662;23.278;2023-07-31T01:22:30;14.47;;;12.60;;
19758;SDS011;10038;42.662;23.278;2023-07-31T01:25:04;14.53;;;13.03;;
19758;SDS011;10038;42.662;23.278;2023-07-31T01:27:37;16.77;;;12.43;;
19758;SDS011;10038;42.662;23.278;2023-07-31T01:30:08;16.30;;;13.73;;
19758;SDS011;10038;42.662;23.278;2023-07-31T01:32:40;17.63;;;14.80;;
19758;SDS011;10038;42.662;23.278;2023-07-31T01:35:07;18.00;;;15.00;;
19758;SDS011;10038;42.662;23.278;2023-07-31T01:37:34;22.30;;;16.93;;
19758;SDS011;10038;42.662;23.278;2023-07-31T01:40:00;19.63;;;16.20;;
19758;SDS011;10038;42.662;23.278;2023-07-31T01:42:27;20.57;;;16.73;;
19758;SDS011;10038;42.662;23.278;2023-07-31T01:44:55;22.57;;;17.93;;
19758;SDS011;10038;42.662;23.278;2023-07-31T01:47:22;20.07;;;17.43;;
19758;SDS011;10038;42.662;23.278;2023-07-31T01:49:49;23.30;;;18.20;;
19758;SDS011;10038;42.662;23.278;2023-07-31T01:52:15;22.47;;;16.80;;
19758;SDS011;10038;42.662;23.278;2023-07-31T01:54:42;23.07;;;18.50;;
19758;SDS011;10038;42.662;23.278;2023-07-31T01:57:09;24.27;;;18.70;;
19758;SDS011;10038;42.662;23.278;2023-07-31T01:59:35;26.17;;;18.20;;
19758;SDS011;10038;42.662;23.278;2023-07-31T02:02:04;21.43;;;18.10;;
19758;SDS011;10038;42.662;23.278;2023-07-31T02:04:30;24.10;;;19.23;;
19758;SDS011;10038;42.662;23.278;2023-07-31T02:06:57;25.23;;;19.50;;
19758;SDS011;10038;42.662;23.278;2023-07-31T02:09:24;24.70;;;20.00;;
19758;SDS011;10038;42.662;23.278;2023-07-31T02:11:50;23.83;;;19.00;;
19758;SDS011;10038;42.662;23.278;2023-07-31T02:14:17;26.53;;;20.30;;
19758;SDS011;10038;42.662;23.278;2023-07-31T02:16:44;25.43;;;19.57;;
19758;SDS011;10038;42.662;23.278;2023-07-31T02:19:12;24.33;;;18.73;;
19758;SDS011;10038;42.662;23.278;2023-07-31T02:21:38;25.17;;;19.17;;
19758;SDS011;10038;42.662;23.278;2023-07-31T02:24:05;23.70;;;19.00;;
19758;SDS011;10038;42.662;23.278;2023-07-31T02:26:32;25.27;;;20.83;;
19758;SDS011;10038;42.662;23.278;2023-07-31T02:28:58;27.73;;;18.97;;
19758;SDS011;10038;42.662;23.278;2023-07-31T02:31:25;23.80;;;19.30;;
19758;SDS011;10038;42.662;23.278;2023-07-31T02:33:52;21.20;;;18.50;;
19758;SDS011;10038;42.662;23.278;2023-07-31T02:36:20;21.83;;;18.00;;
19758;SDS011;10038;42.662;23.278;2023-07-31T02:38:47;23.73;;;18.53;;
19758;SDS011;10038;42.662;23.278;2023-07-31T02:41:13;24.20;;;18.57;;
19758;SDS011;10038;42.662;23.278;2023-07-31T02:43:40;23.70;;;18.60;;
19758;SDS011;10038;42.662;23.278;2023-07-31T02:46:07;23.90;;;18.20;;
19758;SDS011;10038;42.662;23.278;2023-07-31T02:48:33;22.00;;;18.67;;
19758;SDS011;10038;42.662;23.278;2023-07-31T02:51:00;26.57;;;19.93;;
19758;SDS011;10038;42.662;23.278;2023-07-31T02:53:28;29.17;;;19.70;;
19758;SDS011;10038;42.662;23.278;2023-07-31T02:55:55;27.10;;;20.87;;
19758;SDS011;10038;42.662;23.278;2023-07-31T02:58:21;25.10;;;18.83;;
19758;SDS011;10038;42.662;23.278;2023-07-31T03:00:48;21.73;;;17.93;;
19758;SDS011;10038;42.662;23.278;2023-07-31T03:03:15;24.63;;;18.30;;
19758;SDS011;10038;42.662;23.278;2023-07-31T03:05:41;25.70;;;18.20;;
19758;SDS011;10038;42.662;23.278;2023-07-31T03:08:08;23.57;;;18.80;;
19758;SDS011;10038;42.662;23.278;2023-07-31T03:10:36;23.63;;;19.40;;
19758;SDS011;10038;42.662;23.278;2023-07-31T03:13:03;25.30;;;20.30;;
19758;SDS011;10038;42.662;23.278;2023-07-31T03:15:29;20.20;;;16.73;;
19758;SDS011;10038;42.662;23.278;2023-07-31T03:17:56;26.20;;;19.60;;
19758;SDS011;10038;42.662;23.278;2023-07-31T03:20:23;23.80;;;19.33;;
19758;SDS011;10038;42.662;23.278;2023-07-31T03:22:49;24.13;;;18.97;;
19758;SDS011;10038;42.662;23.278;2023-07-31T03:25:16;21.60;;;17.57;;
19758;SDS011;10038;42.662;23.278;2023-07-31T03:27:44;20.87;;;17.70;;
19758;SDS011;10038;42.662;23.278;2023-07-31T03:30:11;23.17;;;18.80;;
19758;SDS011;10038;42.662;23.278;2023-07-31T03:32:38;22.97;;;17.97;;
19758;SDS011;10038;42.662;23.278;2023-07-31T03:35:05;24.30;;;19.37;;
19758;SDS011;10038;42.662;23.278;2023-07-31T03:37:31;27.57;;;20.03;;
19758;SDS011;10038;42.662;23.278;2023-07-31T03:39:58;28.60;;;19.63;;
19758;SDS011;10038;42.662;23.278;2023-07-31T03:42:25;26.30;;;18.73;;
19758;SDS011;10038;42.662;23.278;2023-07-31T03:44:53;22.30;;;18.30;;
19758;SDS011;10038;42.662;23.278;2023-07-31T03:47:19;27.33;;;19.67;;
19758;SDS011;10038;42.662;23.278;2023-07-31T03:49:46;27.03;;;20.13;;
19758;SDS011;10038;42.662;23.278;2023-07-31T03:52:13;23.80;;;18.87;;
19758;SDS011;10038;42.662;23.278;2023-07-31T03:54:39;24.97;;;19.07;;
19758;SDS011;10038;42.662;23.278;2023-07-31T03:57:06;24.40;;;18.57;;
19758;SDS011;10038;42.662;23.278;2023-07-31T03:59:33;26.90;;;20.70;;
19758;SDS011;10038;42.662;23.278;2023-07-31T04:02:01;23.43;;;18.60;;
19758;SDS011;10038;42.662;23.278;2023-07-31T04:04:27;28.63;;;21.13;;
19758;SDS011;10038;42.662;23.278;2023-07-31T04:06:54;24.60;;;19.60;;
19758;SDS011;10038;42.662;23.278;2023-07-31T04:09:21;28.57;;;20.37;;
19758;SDS011;10038;42.662;23.278;2023-07-31T04:11:47;27.77;;;19.67;;
19758;SDS011;10038;42.662;23.278;2023-07-31T04:14:14;24.47;;;18.10;;
19758;SDS011;10038;42.662;23.278;2023-07-31T04:16:41;27.63;;;18.93;;
19758;SDS011;10038;42.662;23.278;2023-07-31T04:19:09;27.20;;;19.83;;
19758;SDS011;10038;42.662;23.278;2023-07-31T04:21:36;24.23;;;18.20;;
19758;SDS011;10038;42.662;23.278;2023-07-31T04:24:03;23.37;;;18.27;;
19758;SDS011;10038;42.662;23.278;2023-07-31T04:26:30;24.30;;;18.17;;
19758;SDS011;10038;42.662;23.278;2023-07-31T04:28:57;22.07;;;17.90;;
19758;SDS011;10038;42.662;23.278;2023-07-31T04:31:23;24.17;;;18.23;;
19758;SDS011;10038;42.662;23.278;2023-07-31T04:33:50;25.87;;;17.80;;
19758;SDS011;10038;42.662;23.278;2023-07-31T04:36:18;24.40;;;18.23;;
19758;SDS011;10038;42.662;23.278;2023-07-31T04:38:45;25.00;;;18.17;;
19758;SDS011;10038;42.662;23.278;2023-07-31T04:41:11;25.63;;;18.80;;
19758;SDS011;10038;42.662;23.278;2023-07-31T04:43:38;23.60;;;17.23;;
19758;SDS011;10038;42.662;23.278;2023-07-31T04:46:06;28.50;;;19.17;;
19758;SDS011;10038;42.662;23.278;2023-07-31T04:48:32;21.57;;;16.97;;
19758;SDS011;10038;42.662;23.278;2023-07-31T04:50:59;20.77;;;16.20;;
19758;SDS011;10038;42.662;23.278;2023-07-31T04:53:27;22.90;;;17.27;;
19758;SDS011;10038;42.662;23.278;2023-07-31T04:55:54;22.10;;;16.80;;
19758;SDS011;10038;42.662;23.278;2023-07-31T04:58:20;22.67;;;17.50;;
19758;SDS011;10038;42.662;23.278;2023-07-31T05:00:47;27.50;;;16.80;;
19758;SDS011;10038;42.662;23.278;2023-07-31T05:03:14;20.80;;;15.77;;
19758;SDS011;10038;42.662;23.278;2023-07-31T05:05:40;24.67;;;16.67;;
19758;SDS011;10038;42.662;23.278;2023-07-31T05:08:07;22.37;;;16.80;;
19758;SDS011;10038;42.662;23.278;2023-07-31T05:10:35;19.10;;;14.40;;
19758;SDS011;10038;42.662;23.278;2023-07-31T05:13:02;18.80;;;14.00;;
19758;SDS011;10038;42.662;23.278;2023-07-31T05:15:28;20.50;;;13.60;;
19758;SDS011;10038;42.662;23.278;2023-07-31T05:17:55;17.33;;;14.50;;
19758;SDS011;10038;42.662;23.278;2023-07-31T05:20:22;19.33;;;14.47;;
19758;SDS011;10038;42.662;23.278;2023-07-31T05:22:49;16.77;;;14.47;;
19758;SDS011;10038;42.662;23.278;2023-07-31T05:25:17;17.80;;;14.17;;
19758;SDS011;10038;42.662;23.278;2023-07-31T05:27:45;17.87;;;14.10;;
19758;SDS011;10038;42.662;23.278;2023-07-31T05:30:12;16.73;;;13.90;;
19758;SDS011;10038;42.662;23.278;2023-07-31T05:32:38;17.57;;;13.53;;
19758;SDS011;10038;42.662;23.278;2023-07-31T05:35:05;15.80;;;12.57;;
19758;SDS011;10038;42.662;23.278;2023-07-31T05:37:32;14.70;;;12.30;;
19758;SDS011;10038;42.662;23.278;2023-07-31T05:39:59;14.20;;;11.60;;
19758;SDS011;10038;42.662;23.278;2023-07-31T05:42:25;11.33;;;10.10;;
19758;SDS011;10038;42.662;23.278;2023-07-31T05:44:54;11.07;;;9.30;;
19758;SDS011;10038;42.662;23.278;2023-07-31T05:47:20;11.00;;;9.90;;
19758;SDS011;10038;42.662;23.278;2023-07-31T05:49:47;10.00;;;8.40;;
19758;SDS011;10038;42.662;23.278;2023-07-31T05:52:14;9.83;;;8.80;;
19758;SDS011;10038;42.662;23.278;2023-07-31T05:54:41;9.70;;;8.70;;
19758;SDS011;10038;42.662;23.278;2023-07-31T05:57:08;11.30;;;9.50;;
19758;SDS011;10038;42.662;23.278;2023-07-31T05:59:35;10.60;;;9.50;;
19758;SDS011;10038;42.662;23.278;2023-07-31T06:02:03;9.73;;;8.40;;
19758;SDS011;10038;42.662;23.278;2023-07-31T06:04:30;7.33;;;6.63;;
19758;SDS011;10038;42.662;23.278;2023-07-31T06:06:57;6.80;;;6.10;;
19758;SDS011;10038;42.662;23.278;2023-07-31T06:09:23;9.70;;;6.60;;
19758;SDS011;10038;42.662;23.278;2023-07-31T06:11:51;7.00;;;6.30;;
19758;SDS011;10038;42.662;23.278;2023-07-31T06:14:17;7.10;;;5.10;;
19758;SDS011;10038;42.662;23.278;2023-07-31T06:16:44;6.07;;;5.47;;
19758;SDS011;10038;42.662;23.278;2023-07-31T06:19:12;6.60;;;5.90;;
19758;SDS011;10038;42.662;23.278;2023-07-31T06:21:39;5.13;;;4.63;;
19758;SDS011;10038;42.662;23.278;2023-07-31T06:24:07;5.77;;;4.60;;
19758;SDS011;10038;42.662;23.278;2023-07-31T06:26:34;5.50;;;4.40;;
19758;SDS011;10038;42.662;23.278;2023-07-31T06:29:01;4.70;;;4.30;;
19758;SDS011;10038;42.662;23.278;2023-07-31T06:31:28;4.90;;;4.33;;
19758;SDS011;10038;42.662;23.278;2023-07-31T06:33:54;5.83;;;4.33;;
19758;SDS011;10038;42.662;23.278;2023-07-31T06:36:23;4.50;;;4.10;;
19758;SDS011;10038;42.662;23.278;2023-07-31T06:38:50;5.23;;;4.00;;
19758;SDS011;10038;42.662;23.278;2023-07-31T06:41:16;4.67;;;4.10;;
19758;SDS011;10038;42.662;23.278;2023-07-31T06:43:43;4.57;;;4.17;;
19758;SDS011;10038;42.662;23.278;2023-07-31T06:46:10;4.03;;;3.63;;
19758;SDS011;10038;42.662;23.278;2023-07-31T06:48:36;5.73;;;3.90;;
19758;SDS011;10038;42.662;23.278;2023-07-31T06:51:03;4.23;;;3.93;;
19758;SDS011;10038;42.662;23.278;2023-07-31T06:53:31;4.90;;;4.07;;
19758;SDS011;10038;42.662;23.278;2023-07-31T06:55:58;3.87;;;3.47;;
19758;SDS011;10038;42.662;23.278;2023-07-31T06:58:25;4.10;;;3.60;;
19758;SDS011;10038;42.662;23.278;2023-07-31T07:00:51;3.57;;;3.27;;
19758;SDS011;10038;42.662;23.278;2023-07-31T07:03:18;5.33;;;3.90;;
19758;SDS011;10038;42.662;23.278;2023-07-31T07:05:45;4.03;;;3.40;;
19758;SDS011;10038;42.662;23.278;2023-07-31T07:08:12;4.73;;;3.70;;
19758;SDS011;10038;42.662;23.278;2023-07-31T07:10:40;6.57;;;3.30;;
19758;SDS011;10038;42.662;23.278;2023-07-31T07:13:06;2.93;;;2.73;;
19758;SDS011;10038;42.662;23.278;2023-07-31T07:15:33;3.07;;;2.87;;
19758;SDS011;10038;42.662;23.278;2023-07-31T07:18:00;3.80;;;2.60;;
19758;SDS011;10038;42.662;23.278;2023-07-31T07:20:27;4.00;;;3.13;;
19758;SDS011;10038;42.662;23.278;2023-07-31T07:22:53;3.47;;;3.17;;
19758;SDS011;10038;42.662;23.278;2023-07-31T07:25:20;4.37;;;2.93;;
19758;SDS011;10038;42.662;23.278;2023-07-31T07:27:48;4.73;;;3.03;;
19758;SDS011;10038;42.662;23.278;2023-07-31T07:30:15;3.93;;;3.00;;
19758;SDS011;10038;42.662;23.278;2023-07-31T07:32:42;2.33;;;2.13;;
19758;SDS011;10038;42.662;23.278;2023-07-31T07:35:09;2.40;;;2.20;;
19758;SDS011;10038;42.662;23.278;2023-07-31T07:37:36;2.40;;;2.20;;
19758;SDS011;10038;42.662;23.278;2023-07-31T07:40:03;2.63;;;2.43;;
19758;SDS011;10038;42.662;23.278;2023-07-31T07:42:30;5.10;;;2.53;;
19758;SDS011;10038;42.662;23.278;2023-07-31T07:44:58;2.47;;;2.27;;
19758;SDS011;10038;42.662;23.278;2023-07-31T07:47:25;3.27;;;2.97;;
19758;SDS011;10038;42.662;23.278;2023-07-31T07:49:52;3.10;;;2.67;;
19758;SDS011;10038;42.662;23.278;2023-07-31T07:52:18;2.43;;;2.23;;
19758;SDS011;10038;42.662;23.278;2023-07-31T07:54:45;2.90;;;2.70;;
19758;SDS011;10038;42.662;23.278;2023-07-31T07:57:12;3.73;;;2.87;;
19758;SDS011;10038;42.662;23.278;2023-07-31T07:59:38;2.90;;;2.60;;
19758;SDS011;10038;42.662;23.278;2023-07-31T08:02:07;2.33;;;2.13;;
19758;SDS011;10038;42.662;23.278;2023-07-31T08:04:33;5.00;;;2.60;;
19758;SDS011;10038;42.662;23.278;2023-07-31T08:07:00;4.03;;;2.60;;
19758;SDS011;10038;42.662;23.278;2023-07-31T08:09:27;2.73;;;2.53;;
19758;SDS011;10038;42.662;23.278;2023-07-31T08:11:53;4.50;;;2.60;;
19758;SDS011;10038;42.662;23.278;2023-07-31T08:14:23;2.67;;;2.47;;
19758;SDS011;10038;42.662;23.278;2023-07-31T08:16:49;2.87;;;2.57;;
19758;SDS011;10038;42.662;23.278;2023-07-31T08:19:17;3.23;;;2.93;;
19758;SDS011;10038;42.662;23.278;2023-07-31T08:21:44;4.33;;;3.00;;
19758;SDS011;10038;42.662;23.278;2023-07-31T08:24:11;4.10;;;2.77;;
19758;SDS011;10038;42.662;23.278;2023-07-31T08:26:37;2.87;;;2.50;;
19758;SDS011;10038;42.662;23.278;2023-07-31T08:29:04;2.40;;;2.20;;
19758;SDS011;10038;42.662;23.278;2023-07-31T08:31:31;2.50;;;2.30;;
19758;SDS011;10038;42.662;23.278;2023-07-31T08:33:59;2.60;;;2.40;;
19758;SDS011;10038;42.662;23.278;2023-07-31T08:36:27;4.03;;;2.80;;
19758;SDS011;10038;42.662;23.278;2023-07-31T08:38:54;4.20;;;2.83;;
19758;SDS011;10038;42.662;23.278;2023-07-31T08:41:20;3.40;;;3.10;;
19758;SDS011;10038;42.662;23.278;2023-07-31T08:43:47;2.87;;;2.67;;
19758;SDS011;10038;42.662;23.278;2023-07-31T08:46:15;7.33;;;2.97;;
19758;SDS011;10038;42.662;23.278;2023-07-31T08:48:42;3.40;;;2.63;;
19758;SDS011;10038;42.662;23.278;2023-07-31T08:51:10;3.33;;;3.03;;
19758;SDS011;10038;42.662;23.278;2023-07-31T08:53:38;2.97;;;2.67;;
19758;SDS011;10038;42.662;23.278;2023-07-31T08:56:05;2.70;;;2.50;;
19758;SDS011;10038;42.662;23.278;2023-07-31T08:58:32;2.87;;;2.20;;
19758;SDS011;10038;42.662;23.278;2023-07-31T09:01:00;3.20;;;2.57;;
19758;SDS011;10038;42.662;23.278;2023-07-31T09:03:27;3.50;;;2.30;;
19758;SDS011;10038;42.662;23.278;2023-07-31T09:05:55;2.40;;;2.20;;
19758;SDS011;10038;42.662;23.278;2023-07-31T09:08:24;3.23;;;2.40;;
19758;SDS011;10038;42.662;23.278;2023-07-31T09:10:53;5.20;;;2.63;;
19758;SDS011;10038;42.662;23.278;2023-07-31T09:13:20;3.80;;;2.27;;
19758;SDS011;10038;42.662;23.278;2023-07-31T09:15:47;2.53;;;2.00;;
19758;SDS011;10038;42.662;23.278;2023-07-31T09:18:14;2.37;;;2.17;;
19758;SDS011;10038;42.662;23.278;2023-07-31T09:20:43;2.40;;;2.20;;
19758;SDS011;10038;42.662;23.278;2023-07-31T09:23:10;2.73;;;1.93;;
19758;SDS011;10038;42.662;23.278;2023-07-31T09:25:37;2.47;;;2.23;;
19758;SDS011;10038;42.662;23.278;2023-07-31T09:28:06;7.80;;;3.23;;
19758;SDS011;10038;42.662;23.278;2023-07-31T09:30:43;2.60;;;2.40;;
19758;SDS011;10038;42.662;23.278;2023-07-31T09:33:10;7.60;;;2.43;;
19758;SDS011;10038;42.662;23.278;2023-07-31T09:35:37;3.30;;;2.30;;
19758;SDS011;10038;42.662;23.278;2023-07-31T09:38:06;3.93;;;2.40;;
19758;SDS011;10038;42.662;23.278;2023-07-31T09:40:33;2.90;;;2.30;;
19758;SDS011;10038;42.662;23.278;2023-07-31T09:43:01;3.20;;;2.60;;
19758;SDS011;10038;42.662;23.278;2023-07-31T09:45:29;2.97;;;2.33;;
19758;SDS011;10038;42.662;23.278;2023-07-31T09:47:56;4.50;;;2.70;;
19758;SDS011;10038;42.662;23.278;2023-07-31T09:50:24;2.67;;;2.47;;
19758;SDS011;10038;42.662;23.278;2023-07-31T09:52:51;3.90;;;2.40;;
19758;SDS011;10038;42.662;23.278;2023-07-31T09:55:18;3.77;;;2.20;;
19758;SDS011;10038;42.662;23.278;2023-07-31T09:57:45;3.90;;;3.00;;
19758;SDS011;10038;42.662;23.278;2023-07-31T10:00:13;2.70;;;2.40;;
19758;SDS011;10038;42.662;23.278;2023-07-31T10:02:41;5.23;;;2.57;;
19758;SDS011;10038;42.662;23.278;2023-07-31T10:05:12;4.23;;;2.10;;
19758;SDS011;10038;42.662;23.278;2023-07-31T10:07:39;2.50;;;2.30;;
19758;SDS011;10038;42.662;23.278;2023-07-31T10:10:07;2.50;;;2.30;;
19758;SDS011;10038;42.662;23.278;2023-07-31T10:12:35;3.37;;;2.00;;
19758;SDS011;10038;42.662;23.278;2023-07-31T10:15:02;14.20;;;2.70;;
19758;SDS011;10038;42.662;23.278;2023-07-31T10:17:29;2.07;;;1.87;;
19758;SDS011;10038;42.662;23.278;2023-07-31T10:19:57;2.53;;;2.17;;
19758;SDS011;10038;42.662;23.278;2023-07-31T10:22:24;3.83;;;2.67;;
19758;SDS011;10038;42.662;23.278;2023-07-31T10:24:51;2.27;;;2.07;;
19758;SDS011;10038;42.662;23.278;2023-07-31T10:27:18;3.17;;;2.40;;
19758;SDS011;10038;42.662;23.278;2023-07-31T10:29:45;1.87;;;1.73;;
19758;SDS011;10038;42.662;23.278;2023-07-31T10:32:13;1.87;;;1.77;;
19758;SDS011;10038;42.662;23.278;2023-07-31T10:34:40;2.77;;;2.13;;
19758;SDS011;10038;42.662;23.278;2023-07-31T10:37:21;5.10;;;2.20;;
19758;SDS011;10038;42.662;23.278;2023-07-31T10:39:55;2.40;;;2.20;;
19758;SDS011;10038;42.662;23.278;2023-07-31T10:42:26;2.20;;;2.10;;
19758;SDS011;10038;42.662;23.278;2023-07-31T10:44:55;2.33;;;1.87;;
19758;SDS011;10038;42.662;23.278;2023-07-31T10:47:22;1.80;;;1.70;;
19758;SDS011;10038;42.662;23.278;2023-07-31T10:49:49;1.80;;;1.70;;
19758;SDS011;10038;42.662;23.278;2023-07-31T10:52:19;2.60;;;2.13;;
19758;SDS011;10038;42.662;23.278;2023-07-31T10:54:49;2.07;;;1.87;;
19758;SDS011;10038;42.662;23.278;2023-07-31T10:57:19;2.00;;;1.60;;
19758;SDS011;10038;42.662;23.278;2023-07-31T10:59:46;6.93;;;2.10;;
19758;SDS011;10038;42.662;23.278;2023-07-31T11:02:23;1.93;;;1.63;;
19758;SDS011;10038;42.662;23.278;2023-07-31T11:05:05;1.90;;;1.80;;
19758;SDS011;10038;42.662;23.278;2023-07-31T11:07:46;1.60;;;1.50;;
19758;SDS011;10038;42.662;23.278;2023-07-31T11:10:17;1.77;;;1.60;;
19758;SDS011;10038;42.662;23.278;2023-07-31T11:12:44;4.70;;;1.80;;
19758;SDS011;10038;42.662;23.278;2023-07-31T11:15:11;3.20;;;1.70;;
19758;SDS011;10038;42.662;23.278;2023-07-31T11:17:38;1.87;;;1.77;;
19758;SDS011;10038;42.662;23.278;2023-07-31T11:20:05;2.60;;;1.70;;
19758;SDS011;10038;42.662;23.278;2023-07-31T11:22:32;2.17;;;1.60;;
19758;SDS011;10038;42.662;23.278;2023-07-31T11:24:59;2.00;;;1.90;;
19758;SDS011;10038;42.662;23.278;2023-07-31T11:27:28;1.80;;;1.70;;
19758;SDS011;10038;42.662;23.278;2023-07-31T11:29:59;2.67;;;1.93;;
19758;SDS011;10038;42.662;23.278;2023-07-31T11:32:26;2.23;;;1.90;;
19758;SDS011;10038;42.662;23.278;2023-07-31T11:34:53;2.40;;;1.77;;
19758;SDS011;10038;42.662;23.278;2023-07-31T11:37:19;2.20;;;1.83;;
19758;SDS011;10038;42.662;23.278;2023-07-31T11:39:58;1.90;;;1.80;;
19758;SDS011;10038;42.662;23.278;2023-07-31T11:42:24;2.40;;;2.20;;
19758;SDS011;10038;42.662;23.278;2023-07-31T11:44:52;2.93;;;2.40;;
19758;SDS011;10038;42.662;23.278;2023-07-31T11:47:19;2.53;;;2.00;;
19758;SDS011;10038;42.662;23.278;2023-07-31T11:49:46;5.30;;;2.20;;
19758;SDS011;10038;42.662;23.278;2023-07-31T11:52:13;2.90;;;2.70;;
19758;SDS011;10038;42.662;23.278;2023-07-31T11:54:39;3.17;;;2.30;;
19758;SDS011;10038;42.662;23.278;2023-07-31T11:57:06;3.60;;;2.57;;
19758;SDS011;10038;42.662;23.278;2023-07-31T11:59:33;2.30;;;2.10;;
19758;SDS011;10038;42.662;23.278;2023-07-31T12:02:01;5.07;;;2.87;;
19758;SDS011;10038;42.662;23.278;2023-07-31T12:04:28;2.80;;;2.60;;
19758;SDS011;10038;42.662;23.278;2023-07-31T12:06:55;3.53;;;2.80;;
19758;SDS011;10038;42.662;23.278;2023-07-31T12:09:22;3.47;;;2.50;;
19758;SDS011;10038;42.662;23.278;2023-07-31T12:11:48;3.10;;;2.80;;
19758;SDS011;10038;42.662;23.278;2023-07-31T12:14:21;3.40;;;3.07;;
19758;SDS011;10038;42.662;23.278;2023-07-31T12:16:52;3.33;;;3.03;;
19758;SDS011;10038;42.662;23.278;2023-07-31T12:19:20;4.77;;;4.37;;
19758;SDS011;10038;42.662;23.278;2023-07-31T12:21:47;5.00;;;4.60;;
19758;SDS011;10038;42.662;23.278;2023-07-31T12:24:14;6.73;;;4.90;;
19758;SDS011;10038;42.662;23.278;2023-07-31T12:26:42;6.00;;;5.50;;
19758;SDS011;10038;42.662;23.278;2023-07-31T12:29:11;4.37;;;4.07;;
19758;SDS011;10038;42.662;23.278;2023-07-31T12:31:38;5.90;;;5.33;;
19758;SDS011;10038;42.662;23.278;2023-07-31T12:34:15;4.67;;;4.27;;
19758;SDS011;10038;42.662;23.278;2023-07-31T12:36:43;5.03;;;4.57;;
19758;SDS011;10038;42.662;23.278;2023-07-31T12:39:10;5.20;;;4.80;;
19758;SDS011;10038;42.662;23.278;2023-07-31T12:41:36;5.40;;;4.70;;
19758;SDS011;10038;42.662;23.278;2023-07-31T12:44:03;4.53;;;4.13;;
19758;SDS011;10038;42.662;23.278;2023-07-31T12:46:30;4.97;;;4.57;;
19758;SDS011;10038;42.662;23.278;2023-07-31T12:48:56;5.50;;;5.00;;
19758;SDS011;10038;42.662;23.278;2023-07-31T12:51:23;4.63;;;4.23;;
19758;SDS011;10038;42.662;23.278;2023-07-31T12:53:51;4.50;;;4.10;;
19758;SDS011;10038;42.662;23.278;2023-07-31T12:56:18;5.67;;;5.17;;
19758;SDS011;10038;42.662;23.278;2023-07-31T12:58:46;5.90;;;5.40;;
19758;SDS011;10038;42.662;23.278;2023-07-31T13:01:13;6.27;;;4.97;;
19758;SDS011;10038;42.662;23.278;2023-07-31T13:03:40;5.70;;;4.90;;
19758;SDS011;10038;42.662;23.278;2023-07-31T13:06:06;5.47;;;4.97;;
19758;SDS011;10038;42.662;23.278;2023-07-31T13:08:33;6.57;;;5.87;;
19758;SDS011;10038;42.662;23.278;2023-07-31T13:11:01;7.20;;;6.60;;
19758;SDS011;10038;42.662;23.278;2023-07-31T13:13:28;7.00;;;5.60;;
19758;SDS011;10038;42.662;23.278;2023-07-31T13:15:55;7.83;;;5.23;;
19758;SDS011;10038;42.662;23.278;2023-07-31T13:18:22;5.60;;;4.90;;
19758;SDS011;10038;42.662;23.278;2023-07-31T13:20:48;5.70;;;4.77;;
19758;SDS011;10038;42.662;23.278;2023-07-31T13:23:15;5.43;;;4.87;;
19758;SDS011;10038;42.662;23.278;2023-07-31T13:25:42;7.00;;;5.57;;
19758;SDS011;10038;42.662;23.278;2023-07-31T13:28:10;5.20;;;4.70;;
19758;SDS011;10038;42.662;23.278;2023-07-31T13:30:36;4.40;;;4.00;;
19758;SDS011;10038;42.662;23.278;2023-07-31T13:33:03;4.80;;;4.40;;
19758;SDS011;10038;42.662;23.278;2023-07-31T13:35:30;4.63;;;3.70;;
19758;SDS011;10038;42.662;23.278;2023-07-31T13:37:57;4.17;;;3.87;;
19758;SDS011;10038;42.662;23.278;2023-07-31T13:40:24;3.90;;;3.60;;
19758;SDS011;10038;42.662;23.278;2023-07-31T13:42:50;4.30;;;4.00;;
19758;SDS011;10038;42.662;23.278;2023-07-31T13:45:19;9.33;;;4.33;;
19758;SDS011;10038;42.662;23.278;2023-07-31T13:47:45;4.70;;;4.30;;
19758;SDS011;10038;42.662;23.278;2023-07-31T13:50:12;7.97;;;3.60;;
19758;SDS011;10038;42.662;23.278;2023-07-31T13:52:39;5.30;;;4.23;;
19758;SDS011;10038;42.662;23.278;2023-07-31T13:55:06;4.60;;;3.83;;
19758;SDS011;10038;42.662;23.278;2023-07-31T13:57:33;4.73;;;4.33;;
19758;SDS011;10038;42.662;23.278;2023-07-31T14:00:00;4.60;;;4.20;;
19758;SDS011;10038;42.662;23.278;2023-07-31T14:02:28;3.90;;;3.60;;
19758;SDS011;10038;42.662;23.278;2023-07-31T14:04:55;4.93;;;4.53;;
19758;SDS011;10038;42.662;23.278;2023-07-31T14:07:21;5.70;;;4.40;;
19758;SDS011;10038;42.662;23.278;2023-07-31T14:09:48;6.10;;;4.40;;
19758;SDS011;10038;42.662;23.278;2023-07-31T14:12:15;5.27;;;3.70;;
19758;SDS011;10038;42.662;23.278;2023-07-31T14:14:41;3.97;;;3.67;;
19758;SDS011;10038;42.662;23.278;2023-07-31T14:17:08;6.03;;;4.40;;
19758;SDS011;10038;42.662;23.278;2023-07-31T14:19:36;4.60;;;4.20;;
19758;SDS011;10038;42.662;23.278;2023-07-31T14:22:03;3.80;;;3.50;;
19758;SDS011;10038;42.662;23.278;2023-07-31T14:24:30;6.50;;;4.03;;
19758;SDS011;10038;42.662;23.278;2023-07-31T14:26:56;9.40;;;3.33;;